Arendahl, Minnesota
Current Conditions -  °F | °C
As of 2:35 AM on Monday 24 Nov 2014 (Local Time) from KFKA Reporting Station
Light Snow Light Snow  
Wind Chill: -8°   Ceiling: 900
Heat Index: -1°   Visibility: 0.75mi
Dew Point: -2°   Wind: 20mph
Humidity: 95%   Direction: 320°NW
Pressure: 29.23"   Gusts: 30mph
Location:  43.7298°N, 91.8267°W
Report Text: KFKA 240835Z AUTO 32017G26KT 3/4SM -SN BKN009 M01/M01 A2923 RMK AO2 T10081015
Loading
Personal Weather Stations






























Interactive Weather Map New forecast layout! Learn more

10-Day Weather Forecast

Advertisements
Track Severe Weather on mobile